sensor_id;sensor_type;location;lat;lon;timestamp;pressure;altitude;pressure_sealevel;temperature;humidity
56400;BME280;42298;53.638;9.876;2023-03-03T00:01:21;102256.19;;;4.89;68.26
56400;BME280;42298;53.638;9.876;2023-03-03T00:03:49;102234.78;;;4.75;68.00
56400;BME280;42298;53.638;9.876;2023-03-03T00:06:14;102242.41;;;4.84;68.17
56400;BME280;42298;53.638;9.876;2023-03-03T00:08:40;102265.34;;;4.95;68.57
56400;BME280;42298;53.638;9.876;2023-03-03T00:11:06;102256.44;;;4.99;69.20
56400;BME280;42298;53.638;9.876;2023-03-03T00:13:40;102265.22;;;5.13;68.63
56400;BME280;42298;53.638;9.876;2023-03-03T00:16:34;102255.84;;;5.20;68.26
56400;BME280;42298;53.638;9.876;2023-03-03T00:19:01;102244.34;;;4.95;69.00
56400;BME280;42298;53.638;9.876;2023-03-03T00:21:31;102258.13;;;5.12;69.50
56400;BME280;42298;53.638;9.876;2023-03-03T00:27:23;102253.59;;;5.17;69.07
56400;BME280;42298;53.638;9.876;2023-03-03T00:29:56;102256.31;;;5.17;69.65
56400;BME280;42298;53.638;9.876;2023-03-03T00:32:41;102253.69;;;5.22;69.17
56400;BME280;42298;53.638;9.876;2023-03-03T00:35:29;102216.19;;;4.95;69.21
56400;BME280;42298;53.638;9.876;2023-03-03T00:37:58;102257.38;;;5.16;69.02
56400;BME280;42298;53.638;9.876;2023-03-03T00:40:38;102248.84;;;5.13;68.98
56400;BME280;42298;53.638;9.876;2023-03-03T00:43:24;102265.34;;;5.18;69.80
56400;BME280;42298;53.638;9.876;2023-03-03T00:45:55;102250.75;;;5.12;69.41
56400;BME280;42298;53.638;9.876;2023-03-03T00:51:01;102265.56;;;5.16;69.59
56400;BME280;42298;53.638;9.876;2023-03-03T00:53:35;102261.66;;;5.12;69.66
56400;BME280;42298;53.638;9.876;2023-03-03T00:56:00;102230.09;;;4.93;69.21
56400;BME280;42298;53.638;9.876;2023-03-03T00:58:25;102261.56;;;5.07;69.63
56400;BME280;42298;53.638;9.876;2023-03-03T01:00:53;102264.88;;;5.09;69.41
56400;BME280;42298;53.638;9.876;2023-03-03T01:03:21;102268.53;;;5.15;69.03
56400;BME280;42298;53.638;9.876;2023-03-03T01:05:48;102255.63;;;5.10;68.99
56400;BME280;42298;53.638;9.876;2023-03-03T01:08:14;102240.75;;;4.95;69.06
56400;BME280;42298;53.638;9.876;2023-03-03T01:10:45;102267.13;;;5.12;69.10
56400;BME280;42298;53.638;9.876;2023-03-03T01:13:14;102267.25;;;5.06;69.04
56400;BME280;42298;53.638;9.876;2023-03-03T01:15:40;102261.44;;;5.02;69.22
56400;BME280;42298;53.638;9.876;2023-03-03T01:18:06;102252.28;;;4.97;69.38
56400;BME280;42298;53.638;9.876;2023-03-03T01:20:31;102264.16;;;5.02;69.46
56400;BME280;42298;53.638;9.876;2023-03-03T01:22:57;102249.19;;;4.93;69.13
56400;BME280;42298;53.638;9.876;2023-03-03T01:25:22;102249.31;;;4.98;69.80
56400;BME280;42298;53.638;9.876;2023-03-03T01:27:47;102244.19;;;5.02;69.14
56400;BME280;42298;53.638;9.876;2023-03-03T01:30:14;102235.78;;;5.03;69.06
56400;BME280;42298;53.638;9.876;2023-03-03T01:32:40;102246.22;;;5.06;69.16
56400;BME280;42298;53.638;9.876;2023-03-03T01:35:05;102215.59;;;4.93;68.93
56400;BME280;42298;53.638;9.876;2023-03-03T01:37:33;102205.50;;;4.93;69.12
56400;BME280;42298;53.638;9.876;2023-03-03T01:39:58;102225.81;;;5.09;69.30
56400;BME280;42298;53.638;9.876;2023-03-03T01:42:24;102223.09;;;5.09;68.91
56400;BME280;42298;53.638;9.876;2023-03-03T01:45:16;102233.53;;;5.12;68.35
56400;BME280;42298;53.638;9.876;2023-03-03T01:48:45;102235.78;;;5.03;68.78
56400;BME280;42298;53.638;9.876;2023-03-03T01:50:56;102206.47;;;4.87;68.69
56400;BME280;42298;53.638;9.876;2023-03-03T01:53:29;102213.00;;;4.86;68.80
56400;BME280;42298;53.638;9.876;2023-03-03T01:55:58;102198.03;;;4.77;68.45
56400;BME280;42298;53.638;9.876;2023-03-03T01:58:30;102236.16;;;5.07;68.75
56400;BME280;42298;53.638;9.876;2023-03-03T02:01:04;102217.50;;;4.92;68.64
56400;BME280;42298;53.638;9.876;2023-03-03T02:03:32;102235.31;;;4.95;68.26
56400;BME280;42298;53.638;9.876;2023-03-03T02:06:00;102230.94;;;4.94;68.56
56400;BME280;42298;53.638;9.876;2023-03-03T02:08:30;102227.69;;;4.85;68.72
56400;BME280;42298;53.638;9.876;2023-03-03T02:10:59;102202.19;;;4.68;69.05
56400;BME280;42298;53.638;9.876;2023-03-03T02:13:25;102236.94;;;4.84;68.89
56400;BME280;42298;53.638;9.876;2023-03-03T02:15:50;102240.63;;;4.90;69.68
56400;BME280;42298;53.638;9.876;2023-03-03T02:18:18;102231.63;;;4.89;68.25
56400;BME280;42298;53.638;9.876;2023-03-03T02:21:04;102232.81;;;4.93;68.63
56400;BME280;42298;53.638;9.876;2023-03-03T02:23:46;102230.19;;;4.87;68.17
56400;BME280;42298;53.638;9.876;2023-03-03T02:26:25;102224.72;;;4.75;68.71
56400;BME280;42298;53.638;9.876;2023-03-03T02:28:51;102205.47;;;4.70;68.70
56400;BME280;42298;53.638;9.876;2023-03-03T02:31:20;102223.66;;;4.76;68.43
56400;BME280;42298;53.638;9.876;2023-03-03T02:33:50;102210.38;;;4.68;68.51
56400;BME280;42298;53.638;9.876;2023-03-03T02:36:22;102224.47;;;4.77;68.65
56400;BME280;42298;53.638;9.876;2023-03-03T02:39:14;102228.53;;;4.74;68.87
56400;BME280;42298;53.638;9.876;2023-03-03T02:41:48;102219.13;;;4.70;69.03
56400;BME280;42298;53.638;9.876;2023-03-03T02:44:21;102218.31;;;4.70;68.97
56400;BME280;42298;53.638;9.876;2023-03-03T02:46:48;102232.53;;;4.72;68.82
56400;BME280;42298;53.638;9.876;2023-03-03T02:49:16;102225.81;;;4.74;69.01
56400;BME280;42298;53.638;9.876;2023-03-03T02:51:42;102224.84;;;4.80;68.66
56400;BME280;42298;53.638;9.876;2023-03-03T02:54:10;102224.38;;;4.83;68.42
56400;BME280;42298;53.638;9.876;2023-03-03T02:56:35;102207.97;;;4.72;69.04
56400;BME280;42298;53.638;9.876;2023-03-03T02:59:02;102232.69;;;4.88;68.82
56400;BME280;42298;53.638;9.876;2023-03-03T03:01:27;102215.13;;;4.84;68.77
56400;BME280;42298;53.638;9.876;2023-03-03T03:03:56;102228.75;;;4.96;68.33
56400;BME280;42298;53.638;9.876;2023-03-03T03:06:22;102229.13;;;4.88;68.20
56400;BME280;42298;53.638;9.876;2023-03-03T03:08:47;102238.88;;;4.95;67.91
56400;BME280;42298;53.638;9.876;2023-03-03T03:11:12;102244.34;;;4.95;67.46
56400;BME280;42298;53.638;9.876;2023-03-03T03:13:38;102244.81;;;4.92;67.85
56400;BME280;42298;53.638;9.876;2023-03-03T03:16:03;102244.91;;;4.97;68.16
56400;BME280;42298;53.638;9.876;2023-03-03T03:18:29;102249.81;;;4.95;67.49
56400;BME280;42298;53.638;9.876;2023-03-03T03:20:54;102223.53;;;4.71;68.22
56400;BME280;42298;53.638;9.876;2023-03-03T03:23:19;102217.38;;;4.76;68.15
56400;BME280;42298;53.638;9.876;2023-03-03T03:25:46;102240.16;;;4.93;68.04
56400;BME280;42298;53.638;9.876;2023-03-03T03:28:16;102246.84;;;4.97;67.79
56400;BME280;42298;53.638;9.876;2023-03-03T03:30:42;102243.25;;;4.96;67.70
56400;BME280;42298;53.638;9.876;2023-03-03T03:33:09;102230.56;;;4.90;67.74
56400;BME280;42298;53.638;9.876;2023-03-03T03:35:36;102210.22;;;4.75;67.63
56400;BME280;42298;53.638;9.876;2023-03-03T03:38:02;102229.00;;;4.83;68.19
56400;BME280;42298;53.638;9.876;2023-03-03T03:40:28;102227.34;;;4.82;67.74
56400;BME280;42298;53.638;9.876;2023-03-03T03:42:53;102240.16;;;4.81;68.08
56400;BME280;42298;53.638;9.876;2023-03-03T03:45:19;102241.00;;;4.82;67.78
56400;BME280;42298;53.638;9.876;2023-03-03T03:47:44;102244.66;;;4.76;68.04
56400;BME280;42298;53.638;9.876;2023-03-03T03:50:10;102206.19;;;4.54;68.56
56400;BME280;42298;53.638;9.876;2023-03-03T03:52:36;102228.84;;;4.66;68.72
56400;BME280;42298;53.638;9.876;2023-03-03T03:55:01;102236.56;;;4.69;68.14
56400;BME280;42298;53.638;9.876;2023-03-03T03:57:26;102233.00;;;4.69;68.11
56400;BME280;42298;53.638;9.876;2023-03-03T03:59:52;102195.00;;;4.44;68.29
56400;BME280;42298;53.638;9.876;2023-03-03T04:02:17;102225.19;;;4.61;68.59
56400;BME280;42298;53.638;9.876;2023-03-03T04:04:43;102182.78;;;4.35;68.31
56400;BME280;42298;53.638;9.876;2023-03-03T04:07:08;102205.00;;;4.50;67.89
56400;BME280;42298;53.638;9.876;2023-03-03T04:09:33;102175.31;;;4.31;69.17
56400;BME280;42298;53.638;9.876;2023-03-03T04:11:59;102214.38;;;4.54;68.72
56400;BME280;42298;53.638;9.876;2023-03-03T04:14:24;102189.41;;;4.39;68.68
56400;BME280;42298;53.638;9.876;2023-03-03T04:16:50;102209.75;;;4.55;68.97
56400;BME280;42298;53.638;9.876;2023-03-03T04:19:15;102188.34;;;4.40;68.35
56400;BME280;42298;53.638;9.876;2023-03-03T04:21:40;102218.03;;;4.60;68.72
56400;BME280;42298;53.638;9.876;2023-03-03T04:24:06;102212.00;;;4.58;68.35
56400;BME280;42298;53.638;9.876;2023-03-03T04:26:32;102213.66;;;4.47;68.17
56400;BME280;42298;53.638;9.876;2023-03-03T04:28:58;102193.06;;;4.22;69.18
56400;BME280;42298;53.638;9.876;2023-03-03T04:31:24;102208.38;;;4.34;69.40
56400;BME280;42298;53.638;9.876;2023-03-03T04:33:50;102217.78;;;4.50;69.35
56400;BME280;42298;53.638;9.876;2023-03-03T04:36:16;102201.03;;;4.46;68.87
56400;BME280;42298;53.638;9.876;2023-03-03T04:38:41;102207.81;;;4.44;69.17
56400;BME280;42298;53.638;9.876;2023-03-03T04:41:06;102211.50;;;4.49;69.10
56400;BME280;42298;53.638;9.876;2023-03-03T04:43:32;102215.44;;;4.53;68.99
56400;BME280;42298;53.638;9.876;2023-03-03T04:45:57;102208.44;;;4.57;69.07
56400;BME280;42298;53.638;9.876;2023-03-03T04:48:22;102201.41;;;4.50;68.83
56400;BME280;42298;53.638;9.876;2023-03-03T04:50:47;102209.75;;;4.55;69.44
56400;BME280;42298;53.638;9.876;2023-03-03T04:53:13;102191.53;;;4.37;69.51
56400;BME280;42298;53.638;9.876;2023-03-03T04:55:38;102201.88;;;4.47;68.85
56400;BME280;42298;53.638;9.876;2023-03-03T04:58:04;102226.34;;;4.53;68.79
56400;BME280;42298;53.638;9.876;2023-03-03T05:00:29;102185.38;;;4.30;68.98
56400;BME280;42298;53.638;9.876;2023-03-03T05:02:55;102235.72;;;4.57;69.49
56400;BME280;42298;53.638;9.876;2023-03-03T05:05:20;102222.69;;;4.59;68.62
56400;BME280;42298;53.638;9.876;2023-03-03T05:07:46;102210.22;;;4.52;69.41
56400;BME280;42298;53.638;9.876;2023-03-03T05:10:11;102225.75;;;4.63;69.16
56400;BME280;42298;53.638;9.876;2023-03-03T05:12:37;102195.25;;;4.54;69.29
56400;BME280;42298;53.638;9.876;2023-03-03T05:15:02;102223.41;;;4.78;68.91
56400;BME280;42298;53.638;9.876;2023-03-03T05:17:28;102203.47;;;4.66;68.72
56400;BME280;42298;53.638;9.876;2023-03-03T05:19:53;102223.44;;;4.89;68.77
56400;BME280;42298;53.638;9.876;2023-03-03T05:22:21;102213.47;;;4.83;67.97
56400;BME280;42298;53.638;9.876;2023-03-03T05:24:47;102201.00;;;4.76;68.25
56400;BME280;42298;53.638;9.876;2023-03-03T05:27:13;102210.84;;;4.77;68.37
56400;BME280;42298;53.638;9.876;2023-03-03T05:29:39;102219.03;;;4.77;68.08
56400;BME280;42298;53.638;9.876;2023-03-03T05:32:04;102195.63;;;4.58;68.53
56400;BME280;42298;53.638;9.876;2023-03-03T05:34:29;102221.53;;;4.78;68.63
56400;BME280;42298;53.638;9.876;2023-03-03T05:36:55;102224.13;;;4.73;68.58
56400;BME280;42298;53.638;9.876;2023-03-03T05:39:21;102201.88;;;4.47;68.25
56400;BME280;42298;53.638;9.876;2023-03-03T05:41:47;102224.09;;;4.62;69.07
56400;BME280;42298;53.638;9.876;2023-03-03T05:44:12;102230.63;;;4.61;68.92
56400;BME280;42298;53.638;9.876;2023-03-03T05:46:38;102194.72;;;4.34;69.14
56400;BME280;42298;53.638;9.876;2023-03-03T05:49:03;102237.75;;;4.62;69.31
56400;BME280;42298;53.638;9.876;2023-03-03T05:51:28;102228.13;;;4.59;69.29
56400;BME280;42298;53.638;9.876;2023-03-03T05:53:54;102206.41;;;4.53;69.28
56400;BME280;42298;53.638;9.876;2023-03-03T05:56:19;102212.25;;;4.56;68.77
56400;BME280;42298;53.638;9.876;2023-03-03T05:58:45;102204.00;;;4.33;69.15
56400;BME280;42298;53.638;9.876;2023-03-03T06:01:10;102230.34;;;4.51;69.57
56400;BME280;42298;53.638;9.876;2023-03-03T06:03:36;102234.75;;;4.52;69.41
56400;BME280;42298;53.638;9.876;2023-03-03T06:06:01;102227.75;;;4.56;69.80
56400;BME280;42298;53.638;9.876;2023-03-03T06:08:27;102222.53;;;4.54;69.44
56400;BME280;42298;53.638;9.876;2023-03-03T06:10:53;102237.97;;;4.60;69.65
56400;BME280;42298;53.638;9.876;2023-03-03T06:13:18;102249.59;;;4.67;69.70
56400;BME280;42298;53.638;9.876;2023-03-03T06:15:44;102225.19;;;4.61;69.53
56400;BME280;42298;53.638;9.876;2023-03-03T06:18:09;102221.25;;;4.57;68.68
56400;BME280;42298;53.638;9.876;2023-03-03T06:20:34;102266.03;;;4.79;68.65
56400;BME280;42298;53.638;9.876;2023-03-03T06:23:01;102252.34;;;4.67;69.19
56400;BME280;42298;53.638;9.876;2023-03-03T06:25:26;102255.91;;;4.68;69.40
56400;BME280;42298;53.638;9.876;2023-03-03T06:27:52;102262.69;;;4.77;69.44
56400;BME280;42298;53.638;9.876;2023-03-03T06:30:18;102253.09;;;4.74;69.57
56400;BME280;42298;53.638;9.876;2023-03-03T06:32:44;102215.28;;;4.48;69.32
56400;BME280;42298;53.638;9.876;2023-03-03T06:35:10;102265.50;;;4.70;68.67
56400;BME280;42298;53.638;9.876;2023-03-03T06:37:35;102248.03;;;4.48;69.10
56400;BME280;42298;53.638;9.876;2023-03-03T06:40:01;102285.56;;;4.64;69.08
56400;BME280;42298;53.638;9.876;2023-03-03T06:42:27;102261.06;;;4.46;69.14
56400;BME280;42298;53.638;9.876;2023-03-03T06:44:52;102237.56;;;4.34;69.15
56400;BME280;42298;53.638;9.876;2023-03-03T06:47:17;102271.19;;;4.57;69.35
56400;BME280;42298;53.638;9.876;2023-03-03T06:49:43;102272.59;;;4.60;69.53
56400;BME280;42298;53.638;9.876;2023-03-03T06:52:14;102280.47;;;4.68;69.26
56400;BME280;42298;53.638;9.876;2023-03-03T06:54:42;102281.41;;;4.62;68.98
56400;BME280;42298;53.638;9.876;2023-03-03T06:57:24;102284.38;;;4.72;69.40
56400;BME280;42298;53.638;9.876;2023-03-03T06:59:52;102287.13;;;4.72;69.15
56400;BME280;42298;53.638;9.876;2023-03-03T07:02:20;102250.53;;;4.50;69.51
56400;BME280;42298;53.638;9.876;2023-03-03T07:04:46;102278.22;;;4.76;69.13
56400;BME280;42298;53.638;9.876;2023-03-03T07:07:18;102284.91;;;4.80;69.07
56400;BME280;42298;53.638;9.876;2023-03-03T07:09:53;102246.16;;;4.60;69.25
56400;BME280;42298;53.638;9.876;2023-03-03T07:12:25;102296.41;;;4.82;68.49
56400;BME280;42298;53.638;9.876;2023-03-03T07:17:34;102295.69;;;4.75;69.40
56400;BME280;42298;53.638;9.876;2023-03-03T07:20:32;102295.81;;;4.80;68.96
56400;BME280;42298;53.638;9.876;2023-03-03T07:22:56;102295.06;;;4.73;68.96
56400;BME280;42298;53.638;9.876;2023-03-03T07:25:31;102305.56;;;4.88;69.52
56400;BME280;42298;53.638;9.876;2023-03-03T07:27:59;102304.72;;;4.87;69.37
56400;BME280;42298;53.638;9.876;2023-03-03T07:30:27;102278.00;;;4.78;68.80
56400;BME280;42298;53.638;9.876;2023-03-03T07:32:55;102269.00;;;4.77;68.84
56400;BME280;42298;53.638;9.876;2023-03-03T07:35:31;102293.44;;;4.84;68.50
56400;BME280;42298;53.638;9.876;2023-03-03T07:38:00;102286.78;;;4.68;70.27
56400;BME280;42298;53.638;9.876;2023-03-03T07:40:34;102303.19;;;4.91;69.30
56400;BME280;42298;53.638;9.876;2023-03-03T07:43:12;102304.63;;;4.94;70.54
56400;BME280;42298;53.638;9.876;2023-03-03T07:45:42;102303.22;;;5.14;70.13
56400;BME280;42298;53.638;9.876;2023-03-03T07:48:25;102289.19;;;5.22;68.77
56400;BME280;42298;53.638;9.876;2023-03-03T07:51:03;102281.47;;;5.08;69.31
56400;BME280;42298;53.638;9.876;2023-03-03T07:53:30;102294.66;;;5.22;69.15
56400;BME280;42298;53.638;9.876;2023-03-03T07:55:59;102273.28;;;5.08;69.71
56400;BME280;42298;53.638;9.876;2023-03-03T07:58:38;102292.53;;;5.24;69.82
56400;BME280;42298;53.638;9.876;2023-03-03T08:01:34;102286.72;;;5.32;69.27
56400;BME280;42298;53.638;9.876;2023-03-03T08:04:11;102298.38;;;5.39;69.83
56400;BME280;42298;53.638;9.876;2023-03-03T08:06:50;102312.16;;;5.44;69.31
56400;BME280;42298;53.638;9.876;2023-03-03T08:11:54;102313.19;;;5.43;69.77
56400;BME280;42298;53.638;9.876;2023-03-03T08:14:32;102297.19;;;5.35;69.75
56400;BME280;42298;53.638;9.876;2023-03-03T08:16:59;102296.72;;;5.38;70.05
56400;BME280;42298;53.638;9.876;2023-03-03T08:19:26;102293.16;;;5.26;69.94
56400;BME280;42298;53.638;9.876;2023-03-03T08:21:55;102271.78;;;5.23;70.83
56400;BME280;42298;53.638;9.876;2023-03-03T08:24:24;102264.38;;;5.24;70.49
56400;BME280;42298;53.638;9.876;2023-03-03T08:26:49;102296.34;;;5.46;70.63
56400;BME280;42298;53.638;9.876;2023-03-03T08:29:14;102261.19;;;5.38;70.00
56400;BME280;42298;53.638;9.876;2023-03-03T08:31:40;102283.75;;;5.68;70.32
56400;BME280;42298;53.638;9.876;2023-03-03T08:34:05;102292.63;;;5.87;70.40
56400;BME280;42298;53.638;9.876;2023-03-03T08:36:31;102291.34;;;5.90;68.63
56400;BME280;42298;53.638;9.876;2023-03-03T08:38:56;102281.81;;;5.80;69.51
56400;BME280;42298;53.638;9.876;2023-03-03T08:41:21;102272.34;;;5.71;70.72
56400;BME280;42298;53.638;9.876;2023-03-03T08:43:46;102283.25;;;5.83;70.98
56400;BME280;42298;53.638;9.876;2023-03-03T08:46:12;102270.75;;;5.87;69.94
56400;BME280;42298;53.638;9.876;2023-03-03T08:48:37;102274.22;;;5.82;70.45
56400;BME280;42298;53.638;9.876;2023-03-03T08:51:03;102273.41;;;5.82;70.29
56400;BME280;42298;53.638;9.876;2023-03-03T08:53:28;102272.56;;;5.81;70.72
56400;BME280;42298;53.638;9.876;2023-03-03T08:55:54;102283.88;;;5.85;70.52
56400;BME280;42298;53.638;9.876;2023-03-03T08:58:20;102281.56;;;5.94;70.55
56400;BME280;42298;53.638;9.876;2023-03-03T09:00:46;102283.81;;;5.97;70.22
56400;BME280;42298;53.638;9.876;2023-03-03T09:03:11;102268.38;;;5.91;70.52
56400;BME280;42298;53.638;9.876;2023-03-03T09:05:37;102275.81;;;6.07;70.76
56400;BME280;42298;53.638;9.876;2023-03-03T09:08:06;102282.19;;;6.24;70.44
56400;BME280;42298;53.638;9.876;2023-03-03T09:10:33;102296.19;;;6.39;70.67
56400;BME280;42298;53.638;9.876;2023-03-03T09:13:06;102295.72;;;6.58;69.26
56400;BME280;42298;53.638;9.876;2023-03-03T09:15:36;102287.16;;;6.55;70.62
56400;BME280;42298;53.638;9.876;2023-03-03T09:23:36;102291.75;;;6.66;70.04
56400;BME280;42298;53.638;9.876;2023-03-03T09:26:18;102298.78;;;6.90;70.39
56400;BME280;42298;53.638;9.876;2023-03-03T09:28:46;102291.38;;;6.90;69.96
56400;BME280;42298;53.638;9.876;2023-03-03T09:31:27;102301.19;;;7.03;68.77
56400;BME280;42298;53.638;9.876;2023-03-03T09:33:55;102298.44;;;7.03;69.23
56400;BME280;42298;53.638;9.876;2023-03-03T09:36:26;102295.78;;;7.08;69.66
56400;BME280;42298;53.638;9.876;2023-03-03T09:38:53;102284.84;;;7.08;69.65
56400;BME280;42298;53.638;9.876;2023-03-03T09:41:44;102309.06;;;7.16;69.64
56400;BME280;42298;53.638;9.876;2023-03-03T09:47:34;102308.75;;;7.12;70.58
56400;BME280;42298;53.638;9.876;2023-03-03T10:12:27;102306.66;;;7.74;69.19
56400;BME280;42298;53.638;9.876;2023-03-03T10:33:34;102303.00;;;8.50;67.61
56400;BME280;42298;53.638;9.876;2023-03-03T10:38:57;102299.56;;;8.64;67.39
56400;BME280;42298;53.638;9.876;2023-03-03T10:41:47;102283.00;;;8.54;65.82
56400;BME280;42298;53.638;9.876;2023-03-03T10:44:31;102293.75;;;8.61;66.58
56400;BME280;42298;53.638;9.876;2023-03-03T10:50:07;102298.81;;;8.42;66.73
56400;BME280;42298;53.638;9.876;2023-03-03T10:52:43;102298.66;;;8.54;66.17
56400;BME280;42298;53.638;9.876;2023-03-03T11:00:49;102282.22;;;8.59;64.96
56400;BME280;42298;53.638;9.876;2023-03-03T11:03:27;102292.97;;;8.60;66.17
56400;BME280;42298;53.638;9.876;2023-03-03T11:06:01;102281.19;;;8.65;65.59
56400;BME280;42298;53.638;9.876;2023-03-03T11:14:18;102276.22;;;8.62;65.72
56400;BME280;42298;53.638;9.876;2023-03-03T11:16:59;102275.63;;;8.60;66.43
56400;BME280;42298;53.638;9.876;2023-03-03T11:19:39;102257.50;;;8.59;66.74
56400;BME280;42298;53.638;9.876;2023-03-03T11:25:10;102268.69;;;8.79;65.56
56400;BME280;42298;53.638;9.876;2023-03-03T11:30:24;102248.53;;;8.68;66.49
56400;BME280;42298;53.638;9.876;2023-03-03T11:33:09;102261.97;;;8.96;66.01
56400;BME280;42298;53.638;9.876;2023-03-03T11:38:44;102260.81;;;9.24;66.34
56400;BME280;42298;53.638;9.876;2023-03-03T11:41:19;102241.28;;;9.20;65.52
56400;BME280;42298;53.638;9.876;2023-03-03T11:43:52;102249.09;;;9.38;65.37
56400;BME280;42298;53.638;9.876;2023-03-03T11:46:33;102248.09;;;9.54;64.97
56400;BME280;42298;53.638;9.876;2023-03-03T11:49:05;102210.84;;;9.37;64.97
56400;BME280;42298;53.638;9.876;2023-03-03T11:52:02;102245.97;;;9.66;65.55
56400;BME280;42298;53.638;9.876;2023-03-03T11:54:36;102213.22;;;9.70;65.09
56400;BME280;42298;53.638;9.876;2023-03-03T11:57:18;102236.28;;;10.16;64.47
56400;BME280;42298;53.638;9.876;2023-03-03T12:00:04;102208.78;;;10.21;63.55
56400;BME280;42298;53.638;9.876;2023-03-03T12:02:49;102209.63;;;10.26;62.50
56400;BME280;42298;53.638;9.876;2023-03-03T12:08:26;102200.81;;;10.29;62.35
56400;BME280;42298;53.638;9.876;2023-03-03T12:10:59;102205.22;;;10.35;62.95
56400;BME280;42298;53.638;9.876;2023-03-03T12:13:53;102192.59;;;10.59;63.04
56400;BME280;42298;53.638;9.876;2023-03-03T12:16:36;102192.31;;;10.71;62.05
56400;BME280;42298;53.638;9.876;2023-03-03T12:19:30;102202.25;;;10.82;62.16
56400;BME280;42298;53.638;9.876;2023-03-03T12:25:00;102172.75;;;10.72;60.61
56400;BME280;42298;53.638;9.876;2023-03-03T12:27:44;102172.47;;;10.74;60.99
56400;BME280;42298;53.638;9.876;2023-03-03T12:36:21;102161.44;;;10.69;61.70
56400;BME280;42298;53.638;9.876;2023-03-03T12:44:22;102153.97;;;10.99;61.33
56400;BME280;42298;53.638;9.876;2023-03-03T12:50:08;102161.91;;;11.26;60.47
56400;BME280;42298;53.638;9.876;2023-03-03T12:55:15;102161.66;;;11.22;59.70
56400;BME280;42298;53.638;9.876;2023-03-03T13:06:27;102141.16;;;11.43;59.62
56400;BME280;42298;53.638;9.876;2023-03-03T13:11:41;102108.72;;;11.20;58.79
56400;BME280;42298;53.638;9.876;2023-03-03T13:17:02;102131.81;;;11.44;58.22
56400;BME280;42298;53.638;9.876;2023-03-03T13:19:40;102145.31;;;11.36;58.78
56400;BME280;42298;53.638;9.876;2023-03-03T13:22:14;102137.66;;;11.23;58.43
56400;BME280;42298;53.638;9.876;2023-03-03T13:25:06;102129.34;;;11.33;58.23
56400;BME280;42298;53.638;9.876;2023-03-03T13:27:43;102102.97;;;11.12;56.77
56400;BME280;42298;53.638;9.876;2023-03-03T13:30:19;102131.56;;;11.31;56.19
56400;BME280;42298;53.638;9.876;2023-03-03T13:33:14;102115.63;;;11.18;55.12
56400;BME280;42298;53.638;9.876;2023-03-03T13:35:45;102134.34;;;11.26;55.09
56400;BME280;42298;53.638;9.876;2023-03-03T13:38:22;102128.28;;;11.24;54.48
56400;BME280;42298;53.638;9.876;2023-03-03T13:41:04;102132.13;;;11.23;54.83
56400;BME280;42298;53.638;9.876;2023-03-03T13:46:34;102117.50;;;11.32;53.97
56400;BME280;42298;53.638;9.876;2023-03-03T13:49:20;102119.75;;;11.20;53.97
56400;BME280;42298;53.638;9.876;2023-03-03T13:51:52;102119.47;;;11.17;54.57
56400;BME280;42298;53.638;9.876;2023-03-03T13:54:35;102112.88;;;11.18;54.59
56400;BME280;42298;53.638;9.876;2023-03-03T13:57:38;102114.44;;;11.39;54.74
56400;BME280;42298;53.638;9.876;2023-03-03T14:00:22;102110.03;;;11.38;53.82
56400;BME280;42298;53.638;9.876;2023-03-03T14:05:25;102066.63;;;10.95;53.56
56400;BME280;42298;53.638;9.876;2023-03-03T14:08:00;102102.69;;;11.13;53.09
56400;BME280;42298;53.638;9.876;2023-03-03T14:10:43;102101.28;;;11.11;52.71
56400;BME280;42298;53.638;9.876;2023-03-03T14:13:26;102087.25;;;11.02;52.68
56400;BME280;42298;53.638;9.876;2023-03-03T14:16:09;102082.31;;;10.99;53.05
56400;BME280;42298;53.638;9.876;2023-03-03T14:19:02;102075.44;;;10.97;52.67
56400;BME280;42298;53.638;9.876;2023-03-03T14:21:39;102057.78;;;10.93;53.72
56400;BME280;42298;53.638;9.876;2023-03-03T14:24:21;102074.31;;;11.03;52.92
56400;BME280;42298;53.638;9.876;2023-03-03T14:26:56;102049.78;;;11.01;53.07
56400;BME280;42298;53.638;9.876;2023-03-03T14:29:41;102065.16;;;11.17;53.17
56400;BME280;42298;53.638;9.876;2023-03-03T14:32:24;102030.78;;;11.00;53.50
56400;BME280;42298;53.638;9.876;2023-03-03T14:35:00;102052.22;;;11.13;53.81
56400;BME280;42298;53.638;9.876;2023-03-03T14:37:45;102063.75;;;11.20;53.83
56400;BME280;42298;53.638;9.876;2023-03-03T14:40:18;102056.34;;;11.15;53.39
56400;BME280;42298;53.638;9.876;2023-03-03T14:42:53;102031.28;;;11.02;54.21
56400;BME280;42298;53.638;9.876;2023-03-03T14:50:40;102051.13;;;11.09;54.18
56400;BME280;42298;53.638;9.876;2023-03-03T14:55:38;102045.63;;;11.09;53.66
56400;BME280;42298;53.638;9.876;2023-03-03T14:58:22;102030.72;;;11.10;53.21
56400;BME280;42298;53.638;9.876;2023-03-03T15:00:48;101996.34;;;10.82;52.81
56400;BME280;42298;53.638;9.876;2023-03-03T15:03:26;102000.75;;;10.88;53.96
56400;BME280;42298;53.638;9.876;2023-03-03T15:05:55;102033.25;;;10.96;52.98
56400;BME280;42298;53.638;9.876;2023-03-03T15:08:40;102025.84;;;10.87;53.52
56400;BME280;42298;53.638;9.876;2023-03-03T15:11:25;102013.22;;;10.76;54.17
56400;BME280;42298;53.638;9.876;2023-03-03T15:13:51;102018.69;;;10.81;54.30
56400;BME280;42298;53.638;9.876;2023-03-03T15:16:21;102014.81;;;10.87;54.74
56400;BME280;42298;53.638;9.876;2023-03-03T15:19:26;102018.13;;;10.84;54.92
56400;BME280;42298;53.638;9.876;2023-03-03T15:22:09;101989.81;;;10.63;54.96
56400;BME280;42298;53.638;9.876;2023-03-03T15:24:47;102008.53;;;10.61;54.21
56400;BME280;42298;53.638;9.876;2023-03-03T15:30:30;102016.56;;;10.48;54.06
56400;BME280;42298;53.638;9.876;2023-03-03T15:36:06;101998.13;;;10.28;54.45
56400;BME280;42298;53.638;9.876;2023-03-03T15:46:40;101997.31;;;10.23;54.51
56400;BME280;42298;53.638;9.876;2023-03-03T15:49:22;101991.00;;;10.22;54.70
56400;BME280;42298;53.638;9.876;2023-03-03T15:52:19;101990.72;;;10.19;54.64